Time,TemperatureF,DewpointF,PressureIn,WindDirection,WindDirectionDegrees,WindSpeedMPH,WindSpeedGustMPH,Humidity,HourlyPrecipIn,Conditions,Clouds,dailyrainin,SoftwareType,DateUTC
2013-06-04 00:02:00,53.0,-99.9,29.90,ESE,108,2.0,4.0,-999,-99.99,,,-99.99,,2013-06-04 07:02:00,
2013-06-04 00:13:00,53.0,-99.9,29.90,WNW,301,1.0,4.0,-999,-99.99,,,-99.99,,2013-06-04 07:13:00,
2013-06-04 00:22:00,53.0,-99.9,29.90,ENE,69,1.0,3.0,-999,-99.99,,,-99.99,,2013-06-04 07:22:00,
2013-06-04 00:32:00,53.0,-99.9,29.90,East,87,0.0,3.0,-999,-99.99,,,-99.99,,2013-06-04 07:32:00,
2013-06-04 00:42:00,53.0,-99.9,29.90,East,88,1.0,2.0,-999,-99.99,,,-99.99,,2013-06-04 07:42:00,
2013-06-04 00:52:00,53.0,-99.9,29.90,East,83,2.0,3.0,-999,-99.99,,,-99.99,,2013-06-04 07:52:00,
2013-06-04 01:02:00,53.0,-99.9,29.90,NE,36,2.0,4.0,-999,-99.99,,,-99.99,,2013-06-04 08:02:00,
2013-06-04 01:12:00,53.0,-99.9,29.90,ESE,105,1.0,2.0,-999,-99.99,,,-99.99,,2013-06-04 08:12:00,
2013-06-04 01:22:00,53.0,-99.9,29.90,NE,53,2.0,4.0,-999,-99.99,,,-99.99,,2013-06-04 08:22:00,
2013-06-04 01:32:00,53.0,-99.9,29.90,ENE,74,1.0,2.0,-999,-99.99,,,-99.99,,2013-06-04 08:32:00,
2013-06-04 01:42:00,53.0,-99.9,29.90,ESE,107,1.0,2.0,-999,-99.99,,,-99.99,,2013-06-04 08:42:00,
2013-06-04 01:52:00,53.0,-99.9,29.90,SE,127,2.0,3.0,-999,-99.99,,,-99.99,,2013-06-04 08:52:00,
2013-06-04 02:02:00,53.0,-99.9,29.90,SE,128,1.0,2.0,-999,-99.99,,,-99.99,,2013-06-04 09:02:00,
2013-06-04 02:12:00,53.0,-99.9,29.90,SSE,151,1.0,2.0,-999,-99.99,,,-99.99,,2013-06-04 09:12:00,
2013-06-04 02:22:00,53.0,-99.9,29.90,ESE,110,-999.0,1.0,-999,-99.99,,,-99.99,,2013-06-04 09:22:00,
2013-06-04 02:33:00,53.0,-99.9,29.89,East,90,1.0,2.0,-999,-99.99,,,-99.99,,2013-06-04 09:33:00,
2013-06-04 02:43:00,53.0,-99.9,29.89,ENE,71,1.0,1.0,-999,-99.99,,,-99.99,,2013-06-04 09:43:00,
2013-06-04 02:53:00,53.0,-99.9,29.89,North,8,0.0,1.0,-999,-99.99,,,-99.99,,2013-06-04 09:53:00,
2013-06-04 03:03:00,53.0,-99.9,29.89,North,-999,-999.0,-999.0,-999,-99.99,,,-99.99,,2013-06-04 10:03:00,
2013-06-04 03:12:00,53.0,-99.9,29.89,North,356,-999.0,1.0,-999,-99.99,,,-99.99,,2013-06-04 10:12:00,
2013-06-04 03:23:00,53.0,-99.9,29.89,ENE,74,-999.0,1.0,-999,-99.99,,,-99.99,,2013-06-04 10:23:00,
2013-06-04 03:33:00,53.0,-99.9,29.88,East,95,0.0,1.0,-999,-99.99,,,-99.99,,2013-06-04 10:33:00,
2013-06-04 03:42:00,53.0,-99.9,29.89,SE,134,0.0,2.0,-999,-99.99,,,-99.99,,2013-06-04 10:42:00,
2013-06-04 03:53:00,53.0,-99.9,29.89,ESE,120,1.0,1.0,-999,-99.99,,,-99.99,,2013-06-04 10:53:00,
2013-06-04 04:02:00,53.0,-99.9,29.89,SE,129,1.0,2.0,-999,-99.99,,,-99.99,,2013-06-04 11:02:00,
2013-06-04 04:12:00,52.0,-99.9,29.89,East,99,1.0,1.0,-999,-99.99,,,-99.99,,2013-06-04 11:12:00,
2013-06-04 04:22:00,52.0,-99.9,29.89,ENE,75,1.0,2.0,-999,-99.99,,,-99.99,,2013-06-04 11:22:00,
2013-06-04 04:32:00,52.0,-99.9,29.89,East,93,2.0,3.0,-999,-99.99,,,-99.99,,2013-06-04 11:32:00,
2013-06-04 04:43:00,52.0,-99.9,29.89,East,100,3.0,4.0,-999,-99.99,,,-99.99,,2013-06-04 11:43:00,
2013-06-04 04:52:00,52.0,-99.9,29.89,East,94,3.0,3.0,-999,-99.99,,,-99.99,,2013-06-04 11:52:00,
2013-06-04 05:02:00,52.0,-99.9,29.88,East,85,2.0,4.0,-999,-99.99,,,-99.99,,2013-06-04 12:02:00,
2013-06-04 05:12:00,52.0,-99.9,29.88,East,85,2.0,4.0,-999,-99.99,,,-99.99,,2013-06-04 12:12:00,
2013-06-04 05:22:00,52.0,-99.9,29.89,East,100,4.0,5.0,-999,-99.99,,,-99.99,,2013-06-04 12:22:00,
2013-06-04 05:32:00,52.0,-99.9,29.89,East,90,4.0,6.0,-999,-99.99,,,-99.99,,2013-06-04 12:32:00,
2013-06-04 05:42:00,52.0,-99.9,29.89,East,88,4.0,5.0,-999,-99.99,,,-99.99,,2013-06-04 12:42:00,
2013-06-04 05:53:00,52.0,-99.9,29.89,East,99,3.0,4.0,-999,-99.99,,,-99.99,,2013-06-04 12:53:00,
2013-06-04 06:03:00,52.0,-99.9,29.90,East,101,3.0,6.0,-999,-99.99,,,-99.99,,2013-06-04 13:03:00,
2013-06-04 06:12:00,52.0,-99.9,29.90,East,99,4.0,5.0,-999,-99.99,,,-99.99,,2013-06-04 13:12:00,
2013-06-04 06:23:00,52.0,-99.9,29.90,East,90,2.0,5.0,-999,-99.99,,,-99.99,,2013-06-04 13:23:00,
2013-06-04 06:32:00,52.0,-99.9,29.91,East,97,4.0,7.0,-999,-99.99,,,-99.99,,2013-06-04 13:32:00,
2013-06-04 06:42:00,52.0,-99.9,29.91,East,101,4.0,6.0,-999,-99.99,,,-99.99,,2013-06-04 13:42:00,
2013-06-04 06:52:00,52.0,-99.9,29.91,ESE,104,4.0,6.0,-999,-99.99,,,-99.99,,2013-06-04 13:52:00,
2013-06-04 07:02:00,52.0,-99.9,29.91,East,98,4.0,7.0,-999,-99.99,,,-99.99,,2013-06-04 14:02:00,
2013-06-04 07:12:00,52.0,-99.9,29.92,ESE,113,4.0,7.0,-999,-99.99,,,-99.99,,2013-06-04 14:12:00,
2013-06-04 07:22:00,52.0,-99.9,29.92,ESE,108,4.0,7.0,-999,-99.99,,,-99.99,,2013-06-04 14:22:00,
2013-06-04 07:32:00,52.0,-99.9,29.92,ESE,109,5.0,6.0,-999,-99.99,,,-99.99,,2013-06-04 14:32:00,
2013-06-04 07:43:00,52.0,-99.9,29.93,ESE,111,6.0,8.0,-999,-99.99,,,-99.99,,2013-06-04 14:43:00,
2013-06-04 07:52:00,52.0,-99.9,29.93,ESE,105,6.0,9.0,-999,-99.99,,,-99.99,,2013-06-04 14:52:00,
2013-06-04 08:02:00,52.0,-99.9,29.93,ESE,119,6.0,9.0,-999,-99.99,,,-99.99,,2013-06-04 15:02:00,
2013-06-04 08:12:00,52.0,-99.9,29.93,East,98,6.0,10.0,-999,-99.99,,,-99.99,,2013-06-04 15:12:00,
2013-06-04 08:22:00,52.0,-99.9,29.94,East,95,6.0,12.0,-999,-99.99,,,-99.99,,2013-06-04 15:22:00,
2013-06-04 08:33:00,52.0,-99.9,29.94,ESE,113,6.0,11.0,-999,-99.99,,,-99.99,,2013-06-04 15:33:00,
2013-06-04 08:42:00,52.0,-99.9,29.94,ESE,114,7.0,11.0,-999,-99.99,,,-99.99,,2013-06-04 15:42:00,
2013-06-04 08:53:00,52.0,-99.9,29.94,ESE,111,9.0,12.0,-999,-99.99,,,-99.99,,2013-06-04 15:53:00,
2013-06-04 09:03:00,52.0,-99.9,29.95,ESE,115,9.0,13.0,-999,-99.99,,,-99.99,,2013-06-04 16:03:00,
2013-06-04 09:13:00,52.0,-99.9,29.95,ESE,116,9.0,12.0,-999,-99.99,,,-99.99,,2013-06-04 16:13:00,
2013-06-04 09:23:00,52.0,-99.9,29.95,ESE,113,9.0,12.0,-999,-99.99,,,-99.99,,2013-06-04 16:23:00,
2013-06-04 09:33:00,52.0,-99.9,29.95,ESE,110,10.0,12.0,-999,-99.99,,,-99.99,,2013-06-04 16:33:00,
2013-06-04 09:42:00,53.0,-99.9,29.96,ESE,114,10.0,12.0,-999,-99.99,,,-99.99,,2013-06-04 16:42:00,
2013-06-04 09:53:00,53.0,-99.9,29.96,ESE,112,9.0,11.0,-999,-99.99,,,-99.99,,2013-06-04 16:53:00,
2013-06-04 10:03:00,53.0,-99.9,29.96,ESE,113,10.0,12.0,-999,-99.99,,,-99.99,,2013-06-04 17:03:00,
2013-06-04 10:12:00,53.0,-99.9,29.96,ESE,110,9.0,12.0,-999,-99.99,,,-99.99,,2013-06-04 17:12:00,
2013-06-04 10:23:00,53.0,-99.9,29.96,ESE,111,9.0,11.0,-999,-99.99,,,-99.99,,2013-06-04 17:23:00,
2013-06-04 10:33:00,53.0,-99.9,29.96,ESE,115,10.0,12.0,-999,-99.99,,,-99.99,,2013-06-04 17:33:00,
2013-06-04 10:42:00,53.0,-99.9,29.97,ESE,113,10.0,13.0,-999,-99.99,,,-99.99,,2013-06-04 17:42:00,
2013-06-04 10:52:00,53.0,-99.9,29.97,ESE,112,9.0,11.0,-999,-99.99,,,-99.99,,2013-06-04 17:52:00,
2013-06-04 11:02:00,53.0,-99.9,29.97,ESE,116,10.0,12.0,-999,-99.99,,,-99.99,,2013-06-04 18:02:00,
2013-06-04 11:12:00,53.0,-99.9,29.98,ESE,112,10.0,12.0,-999,-99.99,,,-99.99,,2013-06-04 18:12:00,
2013-06-04 11:22:00,53.0,-99.9,29.98,ESE,112,9.0,13.0,-999,-99.99,,,-99.99,,2013-06-04 18:22:00,
2013-06-04 11:32:00,52.0,-99.9,29.98,ESE,103,9.0,13.0,-999,-99.99,,,-99.99,,2013-06-04 18:32:00,
2013-06-04 11:42:00,52.0,-99.9,29.98,ESE,106,9.0,15.0,-999,-99.99,,,-99.99,,2013-06-04 18:42:00,
2013-06-04 11:53:00,53.0,-99.9,29.98,ESE,102,9.0,13.0,-999,-99.99,,,-99.99,,2013-06-04 18:53:00,
2013-06-04 12:02:00,53.0,-99.9,29.98,East,100,8.0,12.0,-999,-99.99,,,-99.99,,2013-06-04 19:02:00,
2013-06-04 12:12:00,53.0,-99.9,29.99,ESE,107,8.0,13.0,-999,-99.99,,,-99.99,,2013-06-04 19:12:00,
2013-06-04 12:22:00,53.0,-99.9,29.99,ESE,111,9.0,12.0,-999,-99.99,,,-99.99,,2013-06-04 19:22:00,
2013-06-04 12:33:00,53.0,-99.9,29.99,ESE,108,9.0,12.0,-999,-99.99,,,-99.99,,2013-06-04 19:33:00,
2013-06-04 12:42:00,53.0,-99.9,29.99,ESE,111,9.0,13.0,-999,-99.99,,,-99.99,,2013-06-04 19:42:00,
2013-06-04 12:52:00,53.0,-99.9,29.99,ESE,106,9.0,12.0,-999,-99.99,,,-99.99,,2013-06-04 19:52:00,
2013-06-04 13:03:00,53.0,-99.9,29.99,ESE,114,10.0,12.0,-999,-99.99,,,-99.99,,2013-06-04 20:03:00,
2013-06-04 13:13:00,53.0,-99.9,29.99,ESE,113,10.0,14.0,-999,-99.99,,,-99.99,,2013-06-04 20:13:00,
2013-06-04 13:22:00,53.0,-99.9,29.99,ESE,113,10.0,13.0,-999,-99.99,,,-99.99,,2013-06-04 20:22:00,
2013-06-04 13:32:00,53.0,-99.9,29.99,ESE,115,11.0,13.0,-999,-99.99,,,-99.99,,2013-06-04 20:32:00,
2013-06-04 13:42:00,53.0,-99.9,29.99,ESE,112,8.0,11.0,-999,-99.99,,,-99.99,,2013-06-04 20:42:00,
2013-06-04 13:53:00,53.0,-99.9,29.99,ESE,111,8.0,10.0,-999,-99.99,,,-99.99,,2013-06-04 20:53:00,
2013-06-04 14:02:00,53.0,-99.9,29.99,ESE,115,9.0,11.0,-999,-99.99,,,-99.99,,2013-06-04 21:02:00,
2013-06-04 14:12:00,53.0,-99.9,29.99,ESE,119,8.0,11.0,-999,-99.99,,,-99.99,,2013-06-04 21:12:00,
2013-06-04 14:22:00,53.0,-99.9,29.99,ESE,117,9.0,11.0,-999,-99.99,,,-99.99,,2013-06-04 21:22:00,
2013-06-04 14:33:00,53.0,-99.9,29.99,ESE,110,8.0,11.0,-999,-99.99,,,-99.99,,2013-06-04 21:33:00,
2013-06-04 14:43:00,53.0,-99.9,29.99,ESE,114,7.0,11.0,-999,-99.99,,,-99.99,,2013-06-04 21:43:00,
2013-06-04 14:53:00,53.0,-99.9,29.99,ESE,108,7.0,11.0,-999,-99.99,,,-99.99,,2013-06-04 21:53:00,
2013-06-04 15:02:00,53.0,-99.9,29.99,ESE,113,8.0,11.0,-999,-99.99,,,-99.99,,2013-06-04 22:02:00,
2013-06-04 15:13:00,53.0,-99.9,30.00,ESE,117,8.0,11.0,-999,-99.99,,,-99.99,,2013-06-04 22:13:00,
2013-06-04 15:22:00,53.0,-99.9,29.99,ESE,117,8.0,11.0,-999,-99.99,,,-99.99,,2013-06-04 22:22:00,
2013-06-04 15:33:00,53.0,-99.9,29.99,ESE,117,7.0,10.0,-999,-99.99,,,-99.99,,2013-06-04 22:33:00,
2013-06-04 15:42:00,53.0,-99.9,29.99,ESE,118,8.0,10.0,-999,-99.99,,,-99.99,,2013-06-04 22:42:00,
2013-06-04 15:52:00,53.0,-99.9,29.99,ESE,112,7.0,11.0,-999,-99.99,,,-99.99,,2013-06-04 22:52:00,
2013-06-04 16:02:00,53.0,-99.9,29.99,ESE,114,7.0,10.0,-999,-99.99,,,-99.99,,2013-06-04 23:02:00,
2013-06-04 16:12:00,53.0,-99.9,29.98,ESE,115,7.0,9.0,-999,-99.99,,,-99.99,,2013-06-04 23:12:00,
2013-06-04 16:22:00,53.0,-99.9,29.98,ESE,116,7.0,9.0,-999,-99.99,,,-99.99,,2013-06-04 23:22:00,
2013-06-04 16:32:00,54.0,-99.9,29.98,ESE,109,7.0,9.0,-999,-99.99,,,-99.99,,2013-06-04 23:32:00,
2013-06-04 16:42:00,54.0,-99.9,29.98,ESE,112,6.0,9.0,-999,-99.99,,,-99.99,,2013-06-04 23:42:00,
2013-06-04 16:52:00,54.0,-99.9,29.98,ESE,112,6.0,8.0,-999,-99.99,,,-99.99,,2013-06-04 23:52:00,
2013-06-04 17:02:00,54.0,-99.9,29.98,ESE,112,5.0,8.0,-999,-99.99,,,-99.99,,2013-06-05 00:02:00,
2013-06-04 17:12:00,54.0,-99.9,29.98,ESE,103,4.0,7.0,-999,-99.99,,,-99.99,,2013-06-05 00:12:00,
2013-06-04 17:22:00,54.0,-99.9,29.98,ESE,120,5.0,7.0,-999,-99.99,,,-99.99,,2013-06-05 00:22:00,
2013-06-04 17:33:00,54.0,-99.9,29.98,East,99,2.0,7.0,-999,-99.99,,,-99.99,,2013-06-05 00:33:00,
2013-06-04 17:42:00,54.0,-99.9,29.98,ESE,115,3.0,6.0,-999,-99.99,,,-99.99,,2013-06-05 00:42:00,
2013-06-04 17:52:00,54.0,-99.9,29.98,East,87,3.0,6.0,-999,-99.99,,,-99.99,,2013-06-05 00:52:00,
2013-06-04 18:02:00,54.0,-99.9,29.98,ESE,110,5.0,7.0,-999,-99.99,,,-99.99,,2013-06-05 01:02:00,
2013-06-04 18:12:00,54.0,-99.9,29.97,ESE,115,4.0,7.0,-999,-99.99,,,-99.99,,2013-06-05 01:12:00,
2013-06-04 18:22:00,54.0,-99.9,29.97,East,99,3.0,6.0,-999,-99.99,,,-99.99,,2013-06-05 01:22:00,
2013-06-04 18:32:00,54.0,-99.9,29.97,ESE,123,4.0,6.0,-999,-99.99,,,-99.99,,2013-06-05 01:32:00,
2013-06-04 18:42:00,54.0,-99.9,29.97,East,82,3.0,6.0,-999,-99.99,,,-99.99,,2013-06-05 01:42:00,
2013-06-04 18:52:00,54.0,-99.9,29.97,ESE,113,4.0,5.0,-999,-99.99,,,-99.99,,2013-06-05 01:52:00,
2013-06-04 19:02:00,54.0,-99.9,29.97,ESE,118,2.0,5.0,-999,-99.99,,,-99.99,,2013-06-05 02:02:00,
2013-06-04 19:12:00,53.0,-99.9,29.97,ESE,117,3.0,4.0,-999,-99.99,,,-99.99,,2013-06-05 02:12:00,
2013-06-04 19:22:00,54.0,-99.9,29.97,SE,146,1.0,5.0,-999,-99.99,,,-99.99,,2013-06-05 02:22:00,
2013-06-04 19:32:00,53.0,-99.9,29.97,North,2,2.0,2.0,-999,-99.99,,,-99.99,,2013-06-05 02:32:00,
2013-06-04 19:42:00,54.0,-99.9,29.97,NNW,335,-999.0,2.0,-999,-99.99,,,-99.99,,2013-06-05 02:42:00,
2013-06-04 19:52:00,54.0,-99.9,29.97,SE,131,1.0,2.0,-999,-99.99,,,-99.99,,2013-06-05 02:52:00,
2013-06-04 20:03:00,53.0,-99.9,29.97,ESE,114,2.0,3.0,-999,-99.99,,,-99.99,,2013-06-05 03:03:00,
2013-06-04 20:12:00,53.0,-99.9,29.97,SE,134,0.0,2.0,-999,-99.99,,,-99.99,,2013-06-05 03:12:00,
2013-06-04 20:22:00,53.0,-99.9,29.97,SSE,160,1.0,2.0,-999,-99.99,,,-99.99,,2013-06-05 03:22:00,
2013-06-04 20:33:00,53.0,-99.9,29.97,SE,126,2.0,2.0,-999,-99.99,,,-99.99,,2013-06-05 03:33:00,
2013-06-04 20:43:00,53.0,-99.9,29.97,ESE,115,0.0,1.0,-999,-99.99,,,-99.99,,2013-06-05 03:43:00,
2013-06-04 20:53:00,53.0,-99.9,29.97,East,97,-999.0,1.0,-999,-99.99,,,-99.99,,2013-06-05 03:53:00,
2013-06-04 21:03:00,53.0,-99.9,29.98,SW,216,1.0,2.0,-999,-99.99,,,-99.99,,2013-06-05 04:03:00,
2013-06-04 21:13:00,53.0,-99.9,29.98,WNW,291,-999.0,1.0,-999,-99.99,,,-99.99,,2013-06-05 04:13:00,
2013-06-04 21:23:00,53.0,-99.9,29.98,West,266,3.0,3.0,-999,-99.99,,,-99.99,,2013-06-05 04:23:00,
2013-06-04 21:33:00,53.0,-99.9,29.98,WNW,288,3.0,5.0,-999,-99.99,,,-99.99,,2013-06-05 04:33:00,
2013-06-04 21:43:00,53.0,-99.9,29.98,WSW,247,0.0,3.0,-999,-99.99,,,-99.99,,2013-06-05 04:43:00,
2013-06-04 21:53:00,53.0,-99.9,29.98,West,270,4.0,5.0,-999,-99.99,,,-99.99,,2013-06-05 04:53:00,
2013-06-04 22:02:00,53.0,-99.9,29.99,WSW,246,2.0,4.0,-999,-99.99,,,-99.99,,2013-06-05 05:02:00,
2013-06-04 22:12:00,53.0,-99.9,29.99,West,267,3.0,5.0,-999,-99.99,,,-99.99,,2013-06-05 05:12:00,
2013-06-04 22:23:00,54.0,-99.9,29.99,West,265,4.0,6.0,-999,-99.99,,,-99.99,,2013-06-05 05:23:00,
2013-06-04 22:32:00,54.0,-99.9,29.99,West,273,4.0,6.0,-999,-99.99,,,-99.99,,2013-06-05 05:32:00,
2013-06-04 22:42:00,54.0,-99.9,30.00,WNW,301,2.0,4.0,-999,-99.99,,,-99.99,,2013-06-05 05:42:00,
2013-06-04 22:53:00,54.0,-99.9,30.00,West,272,4.0,5.0,-999,-99.99,,,-99.99,,2013-06-05 05:53:00,
2013-06-04 23:02:00,54.0,-99.9,30.00,West,263,5.0,6.0,-999,-99.99,,,-99.99,,2013-06-05 06:02:00,
2013-06-04 23:12:00,54.0,-99.9,30.01,West,265,4.0,8.0,-999,-99.99,,,-99.99,,2013-06-05 06:12:00,
2013-06-04 23:22:00,54.0,-99.9,30.01,West,269,3.0,7.0,-999,-99.99,,,-99.99,,2013-06-05 06:22:00,
2013-06-04 23:32:00,54.0,-99.9,30.01,West,264,4.0,6.0,-999,-99.99,,,-99.99,,2013-06-05 06:32:00,
2013-06-04 23:42:00,54.0,-99.9,30.00,West,264,4.0,6.0,-999,-99.99,,,-99.99,,2013-06-05 06:42:00,
2013-06-04 23:52:00,54.0,-99.9,30.01,West,268,4.0,6.0,-999,-99.99,,,-99.99,,2013-06-05 06:52:00,